Latest Weather Observations for Clermont Airport

IDQ60801

Issued at 11:02 am EST Tuesday 23 May 2017 (issued every 30 minutes, with the page automatically refreshed every 10 minutes)

About weather observations | Map of weather stations | Latest weather observations for QLD | Other Formats
Station Details ID: 035124 Name: CLERMONT AIRPORT Lat: -22.78 Lon: 147.62 Height: 270.27 m
Data from the previous 72 hours. | See also: Recent months at Clermont Airport
Date/Time
EST
Temp
°C
App
Temp
°C
Dew
Point
°C
Rel
Hum
%
Delta-T
°C
Wind Press
QNH
hPa
Press
MSL
hPa
Rain since
9am
mm
Dir  Spd
km/h
Gust
km/h
Spd
kts
Gust
kts
23/11:00am 24.2 24.1 17.0 64 4.5 SE 13 22 7 12 1020.9 1020.2 0.0
23/10:30am 23.2 23.5 17.0 68 3.8 SE 11 17 6 9 1021.4 1020.7 0.0
23/10:00am 22.5 22.6 17.4 73 3.2 SSE 13 20 7 11 1021.8 1021.1 0.0
23/09:30am 21.3 21.9 17.7 80 2.2 SSE 11 17 6 9 1021.8 1021.1 0.0
23/09:00am 20.2 20.9 17.0 82 2.0 SE 9 17 5 9 1021.8 1021.1 0.0
23/08:30am 19.6 20.5 16.6 83 1.8 SE 7 13 4 7 1021.4 1020.7 0.0
23/08:00am 18.1 19.2 16.6 91 0.9 SSE 6 7 3 4 1021.2 1020.5 0.0
23/07:30am 16.9 17.8 16.1 95 0.5 S 6 7 3 4 1020.8 1020.1 0.0
23/07:00am 15.8 16.2 15.2 96 0.4 S 7 9 4 5 1020.6 1019.9 0.0
23/06:30am 15.4 15.8 14.8 96 0.3 S 6 7 3 4 1020.3 1019.5 0.0
23/06:00am 13.9 14.8 13.0 94 0.5 CALM 0 0 0 0 1020.1 1019.3 0.0
23/05:30am 13.8 14.6 12.7 93 0.6 CALM 0 0 0 0 1019.8 1019.0 0.0
23/05:00am 14.1 15.0 13.0 93 0.6 CALM 0 0 0 0 1019.6 1018.8 0.0
23/04:30am 14.2 15.1 12.9 92 0.7 CALM 0 0 0 0 1019.5 1018.7 0.0
23/04:00am 14.7 15.8 13.4 92 0.7 CALM 0 0 0 0 1019.3 1018.5 0.0
23/03:30am 15.8 17.0 14.8 94 0.6 SSE 2 2 1 1 1019.4 1018.6 0.0
23/03:00am 15.7 17.2 14.7 94 0.6 CALM 0 0 0 0 1019.3 1018.5 0.0
23/02:30am 15.4 16.3 13.9 91 0.9 SSE 2 4 1 2 1019.3 1018.5 0.0
23/02:00am 15.5 16.7 13.7 89 1.0 CALM 0 0 0 0 1019.4 1018.6 0.0
23/01:30am 16.1 17.1 13.2 83 1.6 CALM 0 0 0 0 1019.6 1018.8 0.0
23/01:00am 18.2 19.8 16.0 87 1.3 SE 2 4 1 2 1019.7 1018.9 0.0
23/12:30am 18.6 19.8 15.8 84 1.7 SE 4 6 2 3 1019.9 1019.1 0.0
23/12:00am 19.2 20.5 16.2 83 1.8 SE 4 6 2 3 1020.0 1019.2 0.0
 
Date/Time
EST
Temp
°C
App
Temp
°C
Dew
Point
°C
Rel
Hum
%
Delta-T
°C
Wind Press
QNH
hPa
Press
MSL
hPa
Rain since
9am
mm
Dir  Spd
km/h
Gust
km/h
Spd
kts
Gust
kts
22/11:30pm 19.2 20.7 16.6 85 1.6 SE 4 9 2 5 1020.1 1019.3 0.0
22/11:00pm 17.2 18.8 15.0 87 1.3 CALM 0 2 0 1 1020.2 1019.4 0.0
22/10:30pm 18.1 19.2 15.7 86 1.4 SSE 4 4 2 2 1020.0 1019.2 0.0
22/10:00pm 17.8 19.5 15.2 85 1.5 CALM 0 0 0 0 1020.1 1019.3 0.0
22/09:30pm 18.2 20.0 15.5 84 1.6 CALM 0 0 0 0 1020.1 1019.3 0.0
22/09:00pm 18.8 20.6 15.5 81 2.0 CALM 0 0 0 0 1020.0 1019.2 0.0
22/08:30pm 19.5 21.3 15.4 77 2.4 CALM 0 0 0 0 1019.9 1019.1 0.0
22/08:00pm 20.1 21.5 15.5 75 2.8 ESE 2 4 1 2 1019.6 1018.8 0.0
22/07:30pm 19.7 21.5 15.4 76 2.6 CALM 0 0 0 0 1019.4 1018.6 0.0
22/07:00pm 21.7 22.8 15.5 68 3.7 ESE 4 6 2 3 1018.9 1018.1 0.0
22/06:30pm 22.3 23.2 15.2 64 4.3 SE 4 6 2 3 1018.4 1017.6 0.0
22/06:00pm 23.1 23.7 15.2 61 4.8 ESE 6 9 3 5 1018.2 1017.4 0.0
22/05:30pm 23.9 24.2 15.1 58 5.3 E 7 15 4 8 1017.9 1017.2 0.0
22/05:00pm 25.2 25.3 15.5 55 5.9 E 9 17 5 9 1017.7 1017.0 0.0
22/04:30pm 25.6 25.2 15.3 53 6.3 E 11 17 6 9 1017.3 1016.6 0.0
22/04:00pm 26.2 26.5 15.9 53 6.4 E 9 17 5 9 1017.1 1016.3 0.0
22/03:30pm 25.7 26.1 16.3 56 5.8 E 9 17 5 9 1017.1 1016.3 0.0
22/03:00pm 25.3 25.1 15.6 55 5.9 E 11 20 6 11 1017.1 1016.3 0.0
22/02:30pm 25.1 25.5 15.4 55 5.9 ESE 7 15 4 8 1017.3 1016.6 0.0
22/02:00pm 25.7 25.8 15.4 53 6.3 ESE 9 20 5 11 1017.6 1016.9 0.0
22/01:30pm 26.1 25.7 16.1 54 6.2 E 13 24 7 13 1018.1 1017.3 0.0
22/01:00pm 25.7 25.0 15.4 53 6.3 ESE 13 30 7 16 1018.4 1017.6 0.0
22/12:30pm 24.4 23.7 15.3 57 5.5 E 13 22 7 12 1018.9 1018.1 0.0
22/12:00pm 24.6 24.6 16.3 60 5.1 E 11 26 6 14 1019.4 1018.6 0.0
22/11:30am 24.0 23.1 15.8 60 5.0 SE 15 22 8 12 1019.8 1019.0 0.0
22/11:00am 24.2 23.2 16.5 62 4.8 ESE 17 26 9 14 1020.2 1019.4 0.0
22/10:30am 23.5 22.8 16.5 65 4.3 ESE 15 26 8 14 1020.6 1019.9 0.0
22/10:00am 22.3 21.9 16.3 69 3.7 ESE 13 20 7 11 1020.8 1020.1 0.0
22/09:30am 21.0 21.4 16.4 75 2.8 ESE 9 15 5 8 1020.7 1020.0 0.0
22/09:00am 19.2 19.9 15.7 80 2.1 SSE 6 9 3 5 1020.7 1020.0 0.4
22/08:30am 17.6 17.8 14.7 83 1.7 SSE 7 9 4 5 1020.5 1019.7 0.4
22/08:00am 15.8 16.3 14.0 89 1.0 SSW 4 6 2 3 1020.4 1019.6 0.4
22/07:30am 14.7 15.9 13.7 94 0.6 CALM 0 0 0 0 1020.0 1019.2 0.4
22/07:00am 13.0 13.8 12.4 96 0.3 CALM 0 2 0 1 1019.7 1018.9 0.4
22/06:30am 11.9 11.1 11.0 94 0.5 SW 6 7 3 4 1019.4 1018.6 0.4
22/06:00am 12.5 13.0 11.6 94 0.5 CALM 0 0 0 0 1019.1 1018.3 0.4
22/05:30am 12.3 12.4 11.4 94 0.5 SW 2 4 1 2 1018.8 1018.0 0.4
22/05:00am 12.4 12.9 11.5 94 0.5 CALM 0 0 0 0 1018.5 1017.7 0.4
22/04:30am 12.4 12.9 11.5 94 0.5 CALM 0 0 0 0 1018.4 1017.6 0.4
22/04:00am 12.7 13.3 11.8 94 0.5 CALM 0 0 0 0 1018.3 1017.5 0.4
22/03:30am 12.7 13.2 11.6 93 0.6 CALM 0 0 0 0 1018.3 1017.5 0.4
22/03:00am 13.0 13.6 11.9 93 0.6 CALM 0 0 0 0 1018.3 1017.5 0.4
22/02:30am 13.4 14.1 12.1 92 0.7 CALM 0 0 0 0 1018.3 1017.5 0.4
22/02:00am 13.8 14.6 12.7 93 0.6 CALM 0 0 0 0 1018.3 1017.5 0.4
22/01:30am 13.8 14.6 12.5 92 0.7 CALM 0 0 0 0 1018.3 1017.5 0.4
22/01:00am 14.1 15.0 12.8 92 0.7 CALM 0 0 0 0 1018.6 1017.8 0.4
22/12:30am 14.4 15.4 13.1 92 0.7 CALM 0 0 0 0 1018.5 1017.7 0.4
22/12:00am 14.8 15.8 13.3 91 0.8 CALM 0 0 0 0 1018.6 1017.8 0.4
 
Date/Time
EST
Temp
°C
App
Temp
°C
Dew
Point
°C
Rel
Hum
%
Delta-T
°C
Wind Press
QNH
hPa
Press
MSL
hPa
Rain since
9am
mm
Dir  Spd
km/h
Gust
km/h
Spd
kts
Gust
kts
21/11:30pm 15.2 16.4 13.7 91 0.9 CALM 0 0 0 0 1018.7 1017.9 0.4
21/11:00pm 15.4 15.8 13.8 90 0.9 SW 4 4 2 2 1018.8 1018.0 0.4
21/10:30pm 15.9 16.5 14.3 90 0.9 SW 4 6 2 3 1018.8 1018.0 0.4
21/10:00pm 16.3 17.0 14.5 89 1.0 SW 4 6 2 3 1018.8 1018.0 0.4
21/09:30pm 16.8 18.3 14.6 87 1.3 CALM 0 0 0 0 1018.7 1017.9 0.4
21/09:00pm 17.5 18.9 14.4 82 1.8 CALM 0 2 0 1 1018.7 1017.9 0.4
21/08:30pm 18.0 19.6 14.9 82 1.8 CALM 0 0 0 0 1018.5 1017.7 0.4
21/08:00pm 19.8 21.4 14.8 73 3.0 CALM 0 0 0 0 1018.3 1017.5 0.4
21/07:30pm 20.3 21.5 14.9 71 3.2 ENE 2 4 1 2 1017.7 1017.0 0.4
21/07:00pm 21.0 21.7 14.6 67 3.8 ENE 4 6 2 3 1017.4 1016.7 0.4
21/06:30pm 22.3 23.1 14.7 62 4.5 ENE 4 6 2 3 1016.9 1016.1 0.4
21/06:00pm 23.3 23.9 14.3 57 5.4 E 4 6 2 3 1016.6 1015.8 0.4
21/05:30pm 24.6 24.6 14.1 52 6.3 E 7 13 4 7 1016.3 1015.5 0.4
21/05:00pm 26.1 25.9 13.6 46 7.4 E 7 15 4 8 1015.9 1015.1 0.4
21/04:30pm 27.0 26.7 14.4 46 7.6 E 9 17 5 9 1015.6 1014.8 0.4
21/04:00pm 27.3 27.3 14.3 45 7.9 ESE 7 15 4 8 1015.5 1014.7 0.4
21/03:30pm 26.9 26.1 14.0 45 7.8 E 11 20 6 11 1015.5 1014.7 0.4
21/03:00pm 26.8 26.7 14.9 48 7.3 SSE 9 15 5 8 1015.5 1014.7 0.4
21/02:30pm 27.6 27.6 15.3 47 7.6 SE 9 15 5 8 1015.6 1014.8 0.4
21/02:00pm 26.6 26.5 15.0 49 7.1 SSE 9 17 5 9 1015.9 1015.1 0.4
21/01:30pm 25.8 24.9 14.9 51 6.6 SE 13 19 7 10 1016.2 1015.4 0.4
21/01:00pm 26.0 25.7 15.4 52 6.5 SE 11 19 6 10 1016.7 1015.9 0.4
21/12:30pm 26.5 27.3 16.4 53 6.3 SE 7 17 4 9 1017.1 1016.3 0.4
21/12:00pm 24.9 24.8 16.1 58 5.4 SE 11 20 6 11 1017.6 1016.9 0.4
21/11:30am 24.4 24.5 16.6 61 4.8 ESE 11 17 6 9 1018.2 1017.4 0.4
21/11:00am 23.9 24.7 16.4 63 4.6 SE 7 17 4 9 1018.5 1017.7 0.4
21/10:30am 22.7 23.1 16.3 67 3.9 SSE 9 13 5 7 1018.8 1018.0 0.4
21/10:00am 22.0 22.6 16.7 72 3.3 SE 9 17 5 9 1019.1 1018.3 0.0
21/09:30am 20.3 21.4 16.7 80 2.2 SSE 6 9 3 5 1019.0 1018.2 0.0
21/09:00am 18.8 20.3 16.6 87 1.3 S 4 6 2 3 1018.7 1017.9 0.0
21/08:30am 17.2 18.3 15.7 91 0.9 S 4 6 2 3 1018.5 1017.7 0.0
21/08:00am 15.7 17.0 15.1 96 0.3 S 2 4 1 2 1018.2 1017.4 0.0
21/07:30am 13.8 14.8 13.2 96 0.3 CALM 0 0 0 0 1017.9 1017.2 0.0
21/07:00am 12.1 12.6 11.5 96 0.3 CALM 0 0 0 0 1017.7 1017.0 0.0
21/06:30am 12.1 12.5 11.3 95 0.4 CALM 0 0 0 0 1017.3 1016.6 0.0
21/06:00am 12.1 12.6 11.5 96 0.3 CALM 0 4 0 2 1017.1 1016.3 0.0
21/05:30am 12.5 13.1 11.9 96 0.3 CALM 0 0 0 0 1016.8 1016.0 0.0
21/05:00am 12.6 13.2 12.0 96 0.3 CALM 0 0 0 0 1016.6 1015.8 0.0
21/04:30am 12.6 13.2 11.8 95 0.4 CALM 0 0 0 0 1016.5 1015.7 0.0
21/04:00am 13.3 14.1 12.7 96 0.3 CALM 0 0 0 0 1016.6 1015.8 0.0
21/03:30am 13.6 14.5 12.8 95 0.4 CALM 0 0 0 0 1016.4 1015.6 0.0
21/03:00am 13.8 14.8 13.2 96 0.3 CALM 0 0 0 0 1016.5 1015.7 0.0
21/02:30am 13.4 14.2 12.6 95 0.4 CALM 0 0 0 0 1016.5 1015.7 0.0
21/02:00am 13.8 14.7 13.0 95 0.4 CALM 0 0 0 0 1016.6 1015.8 0.0
21/01:30am 13.9 14.8 13.0 94 0.5 CALM 0 0 0 0 1016.8 1016.0 0.0
21/01:00am 14.2 15.2 13.2 94 0.6 CALM 0 0 0 0 1017.0 1016.2 0.0
21/12:30am 14.4 15.5 13.4 94 0.6 CALM 0 0 0 0 1017.1 1016.3 0.0
21/12:00am 14.5 15.6 13.4 93 0.6 CALM 0 0 0 0 1017.3 1016.6 0.0
 
Date/Time
EST
Temp
°C
App
Temp
°C
Dew
Point
°C
Rel
Hum
%
Delta-T
°C
Wind Press
QNH
hPa
Press
MSL
hPa
Rain since
9am
mm
Dir  Spd
km/h
Gust
km/h
Spd
kts
Gust
kts
20/11:30pm 14.9 16.1 13.9 94 0.6 CALM 0 0 0 0 1017.3 1016.6 0.0
20/11:00pm 15.1 16.4 14.0 93 0.6 CALM 0 0 0 0 1017.4 1016.7 0.0
20/10:30pm 15.2 16.4 13.9 92 0.7 CALM 0 0 0 0 1017.6 1016.9 0.0
20/10:00pm 16.0 17.6 14.9 93 0.6 CALM 0 0 0 0 1017.5 1016.8 0.0
20/09:30pm 16.3 17.9 15.0 92 0.8 CALM 0 0 0 0 1017.6 1016.9 0.0
20/09:00pm 16.7 18.5 15.6 93 0.7 CALM 0 0 0 0 1017.6 1016.9 0.0
20/08:30pm 16.9 18.7 15.4 91 0.9 CALM 0 0 0 0 1017.4 1016.7 0.0
20/08:00pm 17.4 19.3 15.7 90 1.0 CALM 0 0 0 0 1017.5 1016.8 0.0
20/07:30pm 18.0 19.8 15.6 86 1.4 CALM 0 0 0 0 1017.2 1016.4 0.0
20/07:00pm 18.9 20.7 15.6 81 2.0 CALM 0 0 0 0 1016.9 1016.1 0.0
20/06:30pm 20.4 22.4 16.0 76 2.7 CALM 0 0 0 0 1016.5 1015.7 0.0
20/06:00pm 21.6 23.2 15.9 70 3.5 NE 2 4 1 2 1016.2 1015.4 0.0
20/05:30pm 22.8 24.1 16.1 66 4.1 ENE 4 7 2 4 1016.0 1015.2 0.0
20/05:00pm 24.2 25.1 16.2 61 4.9 N 6 9 3 5 1015.7 1014.9 0.0
20/04:30pm 24.7 26.5 16.4 60 5.1 NNW 2 7 1 4 1015.6 1014.8 0.0
20/04:00pm 24.7 25.5 16.4 60 5.1 NNE 7 13 4 7 1015.4 1014.6 0.0
20/03:30pm 25.0 26.4 16.4 59 5.3 N 4 9 2 5 1015.2 1014.4 0.0
20/03:00pm 24.6 26.5 16.6 61 5.0 ENE 2 6 1 3 1015.3 1014.5 0.0
20/02:30pm 23.7 24.6 16.2 63 4.6 S 6 9 3 5 1015.4 1014.6 0.0
20/02:00pm 23.9 25.2 16.2 62 4.7 SW 4 7 2 4 1015.6 1014.8 0.0
20/01:30pm 23.5 24.5 16.3 64 4.4 ESE 6 15 3 8 1016.0 1015.2 0.0
20/01:00pm 22.9 24.0 16.7 68 3.8 SSE 6 11 3 6 1016.3 1015.5 0.0
20/12:30pm 22.9 24.6 16.2 66 4.1 NE 2 7 1 4 1016.8 1016.0 0.0
20/12:00pm 22.4 24.5 17.3 73 3.2 NE 2 7 1 4 1017.3 1016.6 0.0
20/11:30am 20.9 22.4 17.5 81 2.1 SSE 6 11 3 6 1017.8 1017.1 0.0

Other Formats:

Comma delimited format used in spreadsheet applications
http://www.bom.gov.au/fwo/IDQ60801/IDQ60801.94395.axf

JavaScript Object Notation format (JSON) in row-major order
http://www.bom.gov.au/fwo/IDQ60801/IDQ60801.94395.json